Time;durP1;ratioP1;P1;durP2;ratioP2;P2;SDS_P1;SDS_P2;PMS_P1;PMS_P2;Temp;Humidity;BMP_temperature;BMP_pressure;BME280_temperature;BME280_humidity;BME280_pressure;Samples;Min_cycle;Max_cycle;Signal;HPM_P1;HPM_P2
2023/06/04 00:00:06;;;;;;;;;;;;;;;;;;5045294;28;19929;-40
2023/06/04 00:02:32;;;;;;;;;;;;;;;;;;5045194;28;19908;-40
2023/06/04 05:08:51;;;;;;;;;;;;;;;;;;5083122;28;20092;-40
2023/06/04 05:11:17;;;;;;;;;;;;;;;;;;5089858;28;20428;-40
2023/06/04 05:13:44;;;;;;;;;;;;;;;;;;5090125;28;19908;-40
2023/06/04 05:16:11;;;;;;;;;;;;;;;;;;5090042;28;19912;-40
2023/06/04 05:18:40;;;;;;;;;;;;;;;;;;5089577;28;19916;-39
2023/06/04 05:21:06;;;;;;;;;;;;;;;;;;5089736;28;19909;-40
2023/06/04 05:23:36;;;;;;;;;;;;;;;;;;5089956;28;20417;-40
2023/06/04 05:26:03;;;;;;;;;;;;;;;;;;5071693;28;19912;-40
2023/06/04 05:28:29;;;;;;;;;;;;;;;;;;5089236;28;19912;-40
2023/06/04 05:30:59;;;;;;;;;;;;;;;;;;5089804;28;20375;-39
2023/06/04 05:33:25;;;;;;;;;;;;;;;;;;5089943;28;19958;-39
2023/06/04 05:35:54;;;;;;;;;;;;;;;;;;5089737;28;19982;-40
2023/06/04 05:38:20;;;;;;;;;;;;;;;;;;5089274;28;20355;-40
2023/06/04 05:40:46;;;;;;;;;;;;;;;;;;5089683;28;19908;-40
2023/06/04 05:43:13;;;;;;;;;;;;;;;;;;5089389;28;19934;-40
2023/06/04 05:45:38;;;;;;;;;;;;;;;;;;5089316;28;19912;-39
2023/06/04 05:48:04;;;;;;;;;;;;;;;;;;5077106;28;19912;-40
2023/06/04 05:50:31;;;;;;;;;;;;;;;;;;5070033;28;20406;-40
2023/06/04 05:52:56;;;;;;;;;;;;;;;;;;5052468;28;19917;-40
2023/06/04 05:55:22;;;;;;;;;;;;;;;;;;5050541;28;19967;-40
2023/06/04 05:57:48;;;;;;;;;;;;;;;;;;5083157;28;19909;-39
2023/06/04 06:00:15;;;;;;;;;;;;;;;;;;5088922;28;20291;-39
2023/06/04 06:02:43;;;;;;;;;;;;;;;;;;5089688;28;20156;-40
2023/06/04 06:05:09;;;;;;;;;;;;;;;;;;5076805;28;19915;-40
2023/06/04 06:07:35;;;;;;;;;;;;;;;;;;5062222;28;19971;-40
2023/06/04 06:10:01;;;;;;;;;;;;;;;;;;5049814;28;19977;-39
2023/06/04 06:12:27;;;;;;;;;;;;;;;;;;5055751;28;19923;-40
2023/06/04 06:14:53;;;;;;;;;;;;;;;;;;5088585;28;19912;-39
2023/06/04 06:17:19;;;;;;;;;;;;;;;;;;5090218;28;19985;-41
2023/06/04 06:19:45;;;;;;;;;;;;;;;;;;5090395;28;19912;-41
2023/06/04 06:22:12;;;;;;;;;;;;;;;;;;5068732;28;20027;-41
2023/06/04 06:24:38;;;;;;;;;;;;;;;;;;5062322;28;20341;-41
2023/06/04 06:27:05;;;;;;;;;;;;;;;;;;5070107;28;19912;-41
2023/06/04 06:29:30;;;;;;;;;;;;;;;;;;5068944;28;19958;-41
2023/06/04 06:31:56;;;;;;;;;;;;;;;;;;5069958;28;20011;-40
2023/06/04 06:34:22;;;;;;;;;;;;;;;;;;5069708;28;19919;-40
2023/06/04 06:36:49;;;;;;;;;;;;;;;;;;5069870;28;19931;-40
2023/06/04 06:39:15;;;;;;;;;;;;;;;;;;5067378;28;19951;-40
2023/06/04 06:41:41;;;;;;;;;;;;;;;;;;5050248;28;19909;-39
2023/06/04 06:44:07;;;;;;;;;;;;;;;;;;5066414;28;20299;-40
2023/06/04 06:46:33;;;;;;;;;;;;;;;;;;5069649;28;19909;-40
2023/06/04 06:48:59;;;;;;;;;;;;;;;;;;5065565;28;20023;-40
2023/06/04 06:51:25;;;;;;;;;;;;;;;;;;5049461;28;20362;-40
2023/06/04 06:53:51;;;;;;;;;;;;;;;;;;5049554;28;19908;-39
2023/06/04 06:56:18;;;;;;;;;;;;;;;;;;5050566;28;19917;-40
2023/06/04 06:58:44;;;;;;;;;;;;;;;;;;5050126;28;20281;-40
2023/06/04 07:01:09;;;;;;;;;;;;;;;;;;5068062;28;19939;-40
2023/06/04 07:03:35;;;;;;;;;;;;;;;;;;5069479;28;19999;-40
2023/06/04 07:06:01;;;;;;;;;;;;;;;;;;5069406;28;19908;-40
2023/06/04 07:08:28;;;;;;;;;;;;;;;;;;5067681;28;20003;-40
2023/06/04 07:10:54;;;;;;;;;;;;;;;;;;5068827;28;19916;-41
2023/06/04 07:13:20;;;;;;;;;;;;;;;;;;5055493;28;20042;-41
2023/06/04 07:15:46;;;;;;;;;;;;;;;;;;5070176;28;19936;-40
2023/06/04 07:18:12;;;;;;;;;;;;;;;;;;5060543;28;19916;-40
2023/06/04 07:20:38;;;;;;;;;;;;;;;;;;5069158;28;19920;-40
2023/06/04 07:23:04;;;;;;;;;;;;;;;;;;5062080;28;19924;-40
2023/06/04 07:25:30;;;;;;;;;;;;;;;;;;5049312;28;19913;-40
2023/06/04 07:27:58;;;;;;;;;;;;;;;;;;5049116;28;19909;-40
2023/06/04 07:30:24;;;;;;;;;;;;;;;;;;5049013;28;19915;-40
2023/06/04 07:32:50;;;;;;;;;;;;;;;;;;5059970;28;20463;-40
2023/06/04 07:35:16;;;;;;;;;;;;;;;;;;5069804;28;19908;-40
2023/06/04 07:37:47;;;;;;;;;;;;;;;;;;5070227;28;19943;-40
2023/06/04 07:40:13;;;;;;;;;;;;;;;;;;5069197;28;20284;-40
2023/06/04 07:42:39;;;;;;;;;;;;;;;;;;5067999;28;19966;-40
2023/06/04 07:45:05;;;;;;;;;;;;;;;;;;5059006;28;19948;-40
2023/06/04 07:47:31;;;;;;;;;;;;;;;;;;5069742;28;19909;-40
2023/06/04 07:49:57;;;;;;;;;;;;;;;;;;5077324;28;20456;-40
2023/06/04 07:52:23;;;;;;;;;;;;;;;;;;5074280;28;19908;-40
2023/06/04 07:54:49;;;;;;;;;;;;;;;;;;5054908;28;19913;-40
2023/06/04 07:57:15;;;;;;;;;;;;;;;;;;5068513;28;20410;-40
2023/06/04 07:59:41;;;;;;;;;;;;;;;;;;5070728;28;19999;-40
2023/06/04 08:02:07;;;;;;;;;;;;;;;;;;5072617;28;19956;-40
2023/06/04 08:04:33;;;;;;;;;;;;;;;;;;5073782;28;19975;-40
2023/06/04 08:07:00;;;;;;;;;;;;;;;;;;5065461;28;20116;-40
2023/06/04 08:09:26;;;;;;;;;;;;;;;;;;5066498;28;20337;-40
2023/06/04 08:11:52;;;;;;;;;;;;;;;;;;5076720;28;19948;-40
2023/06/04 08:14:19;;;;;;;;;;;;;;;;;;5072643;28;20011;-40
2023/06/04 08:16:45;;;;;;;;;;;;;;;;;;5071923;28;19908;-40
2023/06/04 08:19:12;;;;;;;;;;;;;;;;;;5071318;28;20428;-40
2023/06/04 08:21:40;;;;;;;;;;;;;;;;;;5072679;28;19916;-40
2023/06/04 08:24:06;;;;;;;;;;;;;;;;;;5072935;28;19904;-40
2023/06/04 08:26:32;;;;;;;;;;;;;;;;;;5072504;28;20070;-40
2023/06/04 08:28:58;;;;;;;;;;;;;;;;;;5065610;28;20007;-40
2023/06/04 08:31:26;;;;;;;;;;;;;;;;;;5088689;28;20022;-40
2023/06/04 08:33:52;;;;;;;;;;;;;;;;;;5073326;28;19916;-40
2023/06/04 08:36:18;;;;;;;;;;;;;;;;;;5055607;28;19917;-40
2023/06/04 08:38:44;;;;;;;;;;;;;;;;;;5061994;28;20284;-40
2023/06/04 08:41:10;;;;;;;;;;;;;;;;;;5067853;28;19963;-40
2023/06/04 08:43:36;;;;;;;;;;;;;;;;;;5064004;28;20026;-40
2023/06/04 08:46:06;;;;;;;;;;;;;;;;;;5069677;28;19913;-40
2023/06/04 08:48:32;;;;;;;;;;;;;;;;;;5066920;28;19958;-40
2023/06/04 08:50:58;;;;;;;;;;;;;;;;;;5071164;28;20413;-40
2023/06/04 08:53:24;;;;;;;;;;;;;;;;;;5066208;28;19912;-40
2023/06/04 08:55:50;;;;;;;;;;;;;;;;;;5071586;28;19921;-40
2023/06/04 08:58:16;;;;;;;;;;;;;;;;;;5071551;28;19908;-40
2023/06/04 09:00:42;;;;;;;;;;;;;;;;;;5061740;28;19917;-40
2023/06/04 09:03:10;;;;;;;;;;;;;;;;;;5073592;28;19939;-40
2023/06/04 09:05:36;;;;;;;;;;;;;;;;;;5070936;28;19913;-40
2023/06/04 09:08:02;;;;;;;;;;;;;;;;;;5070370;28;20707;-40
2023/06/04 09:10:28;;;;;;;;;;;;;;;;;;5070673;28;19974;-40
2023/06/04 09:12:54;;;;;;;;;;;;;;;;;;5070479;28;20279;-40
2023/06/04 09:15:20;;;;;;;;;;;;;;;;;;5069862;28;19912;-40
2023/06/04 09:17:46;;;;;;;;;;;;;;;;;;5071097;28;19916;-40
2023/06/04 09:20:12;;;;;;;;;;;;;;;;;;5070900;28;19955;-40
2023/06/04 09:22:38;;;;;;;;;;;;;;;;;;5069869;28;20356;-40
2023/06/04 09:25:04;;;;;;;;;;;;;;;;;;5070154;28;19920;-40
2023/06/04 09:27:30;;;;;;;;;;;;;;;;;;5068199;28;19935;-40
2023/06/04 09:29:56;;;;;;;;;;;;;;;;;;5050774;28;19917;-40
2023/06/04 09:32:22;;;;;;;;;;;;;;;;;;5061079;28;19981;-40
2023/06/04 09:34:48;;;;;;;;;;;;;;;;;;5070581;28;20019;-39
2023/06/04 09:37:14;;;;;;;;;;;;;;;;;;5070404;28;19912;-40
2023/06/04 09:39:40;;;;;;;;;;;;;;;;;;5070589;28;19974;-39
2023/06/04 09:42:08;;;;;;;;;;;;;;;;;;5069120;28;20330;-40
2023/06/04 09:44:34;;;;;;;;;;;;;;;;;;5070050;28;19966;-39
2023/06/04 09:47:00;;;;;;;;;;;;;;;;;;5070478;28;20003;-39
2023/06/04 09:49:26;;;;;;;;;;;;;;;;;;5069895;28;19908;-39
2023/06/04 09:51:52;;;;;;;;;;;;;;;;;;5070371;28;19915;-39
2023/06/04 09:54:18;;;;;;;;;;;;;;;;;;5061872;28;19912;-40
2023/06/04 09:56:44;;;;;;;;;;;;;;;;;;5050083;28;19909;-39
2023/06/04 09:59:10;;;;;;;;;;;;;;;;;;5065263;28;19926;-39
2023/06/04 10:01:36;;;;;;;;;;;;;;;;;;5070232;28;19912;-39
2023/06/04 10:04:03;;;;;;;;;;;;;;;;;;5072382;28;19908;-39
2023/06/04 10:06:29;;;;;;;;;;;;;;;;;;5065071;28;19924;-39
2023/06/04 10:08:55;;;;;;;;;;;;;;;;;;5056923;28;20022;-39
2023/06/04 10:11:22;;;;;;;;;;;;;;;;;;5068676;28;20403;-39
2023/06/04 10:13:47;;;;;;;;;;;;;;;;;;5064536;28;20000;-40
2023/06/04 10:16:13;;;;;;;;;;;;;;;;;;5057131;28;20012;-39
2023/06/04 10:18:39;;;;;;;;;;;;;;;;;;5052871;28;19964;-40
2023/06/04 10:21:06;;;;;;;;;;;;;;;;;;5058019;28;19987;-40
2023/06/04 10:23:32;;;;;;;;;;;;;;;;;;5069522;28;19909;-40
2023/06/04 10:25:58;;;;;;;;;;;;;;;;;;5054864;28;20386;-40
2023/06/04 10:28:24;;;;;;;;;;;;;;;;;;5050773;28;19924;-40
2023/06/04 10:30:50;;;;;;;;;;;;;;;;;;5057450;28;19970;-40
2023/06/04 10:33:16;;;;;;;;;;;;;;;;;;5069209;28;19909;-40
2023/06/04 10:35:43;;;;;;;;;;;;;;;;;;5069689;28;19915;-40
2023/06/04 10:38:08;;;;;;;;;;;;;;;;;;5060882;28;19913;-40
2023/06/04 10:40:34;;;;;;;;;;;;;;;;;;5065369;28;19949;-40
2023/06/04 10:43:00;;;;;;;;;;;;;;;;;;5069175;28;19954;-40
2023/06/04 10:45:26;;;;;;;;;;;;;;;;;;5050736;28;19912;-40
2023/06/04 10:47:52;;;;;;;;;;;;;;;;;;5065452;28;19916;-40
2023/06/04 10:50:18;;;;;;;;;;;;;;;;;;5066560;28;19913;-40
2023/06/04 10:52:44;;;;;;;;;;;;;;;;;;5066243;28;20295;-40
2023/06/04 10:55:10;;;;;;;;;;;;;;;;;;5052012;28;19919;-40
2023/06/04 10:57:36;;;;;;;;;;;;;;;;;;5067179;28;19915;-40
2023/06/04 11:00:06;;;;;;;;;;;;;;;;;;5067276;28;19912;-40
2023/06/04 11:02:32;;;;;;;;;;;;;;;;;;5056433;28;19922;-40
2023/06/04 11:04:57;;;;;;;;;;;;;;;;;;5060218;28;19912;-40
2023/06/04 11:07:24;;;;;;;;;;;;;;;;;;5046942;28;19912;-40
2023/06/04 11:09:50;;;;;;;;;;;;;;;;;;5065895;28;20235;-39
2023/06/04 11:12:16;;;;;;;;;;;;;;;;;;5064389;28;20003;-40
2023/06/04 11:14:42;;;;;;;;;;;;;;;;;;5064057;28;20003;-40
2023/06/04 11:17:09;;;;;;;;;;;;;;;;;;5065712;28;19908;-40
2023/06/04 11:19:34;;;;;;;;;;;;;;;;;;5064184;28;19920;-40
2023/06/04 11:22:00;;;;;;;;;;;;;;;;;;5065751;28;20386;-40
2023/06/04 11:24:26;;;;;;;;;;;;;;;;;;5064444;28;19919;-40
2023/06/04 11:26:52;;;;;;;;;;;;;;;;;;5066209;28;19912;-39
2023/06/04 11:29:18;;;;;;;;;;;;;;;;;;5057673;28;19995;-40
2023/06/04 11:31:44;;;;;;;;;;;;;;;;;;5045847;28;20411;-40
2023/06/04 11:34:13;;;;;;;;;;;;;;;;;;5054746;28;20307;-40
2023/06/04 11:36:39;;;;;;;;;;;;;;;;;;5065524;28;19978;-40
2023/06/04 11:39:08;;;;;;;;;;;;;;;;;;5063704;28;19920;-40
2023/06/04 11:41:33;;;;;;;;;;;;;;;;;;5064909;28;19913;-40
2023/06/04 11:43:59;;;;;;;;;;;;;;;;;;5065476;28;20011;-40
2023/06/04 11:46:26;;;;;;;;;;;;;;;;;;5045490;28;20395;-39
2023/06/04 11:48:52;;;;;;;;;;;;;;;;;;5065152;28;19919;-40
2023/06/04 11:51:18;;;;;;;;;;;;;;;;;;5057707;28;20300;-40
2023/06/04 11:53:44;;;;;;;;;;;;;;;;;;5064586;28;19923;-40
2023/06/04 11:56:11;;;;;;;;;;;;;;;;;;5062582;28;19935;-40
2023/06/04 11:58:37;;;;;;;;;;;;;;;;;;5048027;28;19916;-40
2023/06/04 12:01:03;;;;;;;;;;;;;;;;;;5065094;28;20336;-40
2023/06/04 12:03:28;;;;;;;;;;;;;;;;;;5065040;28;19909;-40
2023/06/04 12:05:55;;;;;;;;;;;;;;;;;;5065221;28;19935;-39
2023/06/04 12:08:21;;;;;;;;;;;;;;;;;;5065924;28;20009;-40
2023/06/04 12:10:47;;;;;;;;;;;;;;;;;;5063019;28;20477;-40
2023/06/04 12:13:13;;;;;;;;;;;;;;;;;;5064915;28;19958;-40
2023/06/04 12:15:39;;;;;;;;;;;;;;;;;;5065095;28;19913;-40
2023/06/04 12:18:05;;;;;;;;;;;;;;;;;;5065137;28;20427;-40
2023/06/04 12:20:31;;;;;;;;;;;;;;;;;;5063825;28;19935;-40
2023/06/04 12:22:57;;;;;;;;;;;;;;;;;;5059149;28;20379;-40
2023/06/04 12:25:23;;;;;;;;;;;;;;;;;;5045612;28;19913;-40
2023/06/04 12:27:49;;;;;;;;;;;;;;;;;;5055912;28;20038;-40
2023/06/04 12:30:17;;;;;;;;;;;;;;;;;;5054428;28;19912;-40
2023/06/04 12:32:43;;;;;;;;;;;;;;;;;;5058142;28;19913;-40
2023/06/04 12:35:10;;;;;;;;;;;;;;;;;;5049094;28;19913;-40
2023/06/04 12:37:36;;;;;;;;;;;;;;;;;;5048974;28;19912;-40
2023/06/04 12:40:04;;;;;;;;;;;;;;;;;;5060479;28;19916;-40
2023/06/04 12:42:30;;;;;;;;;;;;;;;;;;5064404;28;19920;-40
2023/06/04 12:44:56;;;;;;;;;;;;;;;;;;5067601;28;19952;-40
2023/06/04 12:47:22;;;;;;;;;;;;;;;;;;5069619;28;19959;-40
2023/06/04 12:49:47;;;;;;;;;;;;;;;;;;5067844;28;19913;-40
2023/06/04 12:52:14;;;;;;;;;;;;;;;;;;5065619;28;19920;-40
2023/06/04 12:54:41;;;;;;;;;;;;;;;;;;5048855;28;20039;-40
2023/06/04 12:57:06;;;;;;;;;;;;;;;;;;5048507;28;19915;-40
2023/06/04 12:59:32;;;;;;;;;;;;;;;;;;5055363;28;19920;-40
2023/06/04 13:01:58;;;;;;;;;;;;;;;;;;5067937;28;19908;-40
2023/06/04 13:04:24;;;;;;;;;;;;;;;;;;5057473;28;19912;-40
2023/06/04 13:06:52;;;;;;;;;;;;;;;;;;5067153;28;19916;-40
2023/06/04 13:09:20;;;;;;;;;;;;;;;;;;5057690;28;19920;-40
2023/06/04 13:11:46;;;;;;;;;;;;;;;;;;5048049;28;19916;-41
2023/06/04 13:14:13;;;;;;;;;;;;;;;;;;5056631;28;19912;-41
2023/06/04 13:16:40;;;;;;;;;;;;;;;;;;5067711;28;19912;-41
2023/06/04 13:19:06;;;;;;;;;;;;;;;;;;5068760;28;20437;-41
2023/06/04 13:21:32;;;;;;;;;;;;;;;;;;5068979;28;19931;-41
2023/06/04 13:23:58;;;;;;;;;;;;;;;;;;5063997;28;20383;-41
2023/06/04 13:26:24;;;;;;;;;;;;;;;;;;5051893;28;19952;-41
2023/06/04 13:28:50;;;;;;;;;;;;;;;;;;5069510;28;19986;-41
2023/06/04 13:31:16;;;;;;;;;;;;;;;;;;5069580;28;19947;-41
2023/06/04 13:33:42;;;;;;;;;;;;;;;;;;5069484;28;19924;-41
2023/06/04 13:36:08;;;;;;;;;;;;;;;;;;5051094;28;19915;-41
2023/06/04 13:38:34;;;;;;;;;;;;;;;;;;5068892;28;19913;-41
2023/06/04 13:41:00;;;;;;;;;;;;;;;;;;5068800;28;19913;-40
2023/06/04 13:43:26;;;;;;;;;;;;;;;;;;5067820;28;19966;-41
2023/06/04 13:45:52;;;;;;;;;;;;;;;;;;5068561;28;19935;-41
2023/06/04 13:48:18;;;;;;;;;;;;;;;;;;5067975;28;19916;-40
2023/06/04 13:50:44;;;;;;;;;;;;;;;;;;5067425;28;20437;-41
2023/06/04 13:53:12;;;;;;;;;;;;;;;;;;5069314;28;20427;-41
2023/06/04 13:55:38;;;;;;;;;;;;;;;;;;5068851;28;19919;-41
2023/06/04 13:58:04;;;;;;;;;;;;;;;;;;5068131;28;19917;-41
2023/06/04 14:00:31;;;;;;;;;;;;;;;;;;5063145;28;19917;-41
2023/06/04 14:02:57;;;;;;;;;;;;;;;;;;5056789;28;20810;-41
2023/06/04 14:05:24;;;;;;;;;;;;;;;;;;5060091;28;20008;-41
2023/06/04 14:07:50;;;;;;;;;;;;;;;;;;5067323;28;20760;-41
2023/06/04 14:10:16;;;;;;;;;;;;;;;;;;5068391;28;20453;-41
2023/06/04 14:12:43;;;;;;;;;;;;;;;;;;5059241;28;20291;-41
2023/06/04 14:15:10;;;;;;;;;;;;;;;;;;5057069;28;19960;-41
2023/06/04 14:17:36;;;;;;;;;;;;;;;;;;5067836;28;19916;-41
2023/06/04 14:20:06;;;;;;;;;;;;;;;;;;5068812;28;20295;-41
2023/06/04 14:22:32;;;;;;;;;;;;;;;;;;5055384;28;19913;-41
2023/06/04 14:24:59;;;;;;;;;;;;;;;;;;5053862;28;19931;-41
2023/06/04 14:27:25;;;;;;;;;;;;;;;;;;5042870;28;19920;-41
2023/06/04 14:29:51;;;;;;;;;;;;;;;;;;5046830;28;19959;-42
2023/06/04 14:32:17;;;;;;;;;;;;;;;;;;5046833;28;20015;-41
2023/06/04 14:34:43;;;;;;;;;;;;;;;;;;5049956;28;19935;-41
2023/06/04 14:37:08;;;;;;;;;;;;;;;;;;5063594;28;20031;-42
2023/06/04 14:39:36;;;;;;;;;;;;;;;;;;5049060;28;19921;-42
2023/06/04 14:42:02;;;;;;;;;;;;;;;;;;5046943;28;19956;-42
2023/06/04 14:44:28;;;;;;;;;;;;;;;;;;5053070;28;19956;-41
2023/06/04 14:46:53;;;;;;;;;;;;;;;;;;5066592;28;19913;-42
2023/06/04 14:49:20;;;;;;;;;;;;;;;;;;5063575;28;19986;-42
2023/06/04 14:51:47;;;;;;;;;;;;;;;;;;5065797;28;19912;-44
2023/06/04 14:54:13;;;;;;;;;;;;;;;;;;5066202;28;19908;-42
2023/06/04 14:56:39;;;;;;;;;;;;;;;;;;5065233;28;19939;-43
2023/06/04 14:59:08;;;;;;;;;;;;;;;;;;5064988;28;20404;-42
2023/06/04 15:01:35;;;;;;;;;;;;;;;;;;5065814;28;20384;-42
2023/06/04 15:04:01;;;;;;;;;;;;;;;;;;5066522;28;20018;-42
2023/06/04 15:06:26;;;;;;;;;;;;;;;;;;5065177;28;20023;-42
2023/06/04 15:08:53;;;;;;;;;;;;;;;;;;5053952;28;19935;-42
2023/06/04 15:11:20;;;;;;;;;;;;;;;;;;5047848;28;20163;-42
2023/06/04 15:13:47;;;;;;;;;;;;;;;;;;5066401;28;19955;-42
2023/06/04 15:16:13;;;;;;;;;;;;;;;;;;5066306;28;20474;-42
2023/06/04 15:18:38;;;;;;;;;;;;;;;;;;5059453;28;20022;-42
2023/06/04 15:21:04;;;;;;;;;;;;;;;;;;5066310;28;19995;-43
2023/06/04 15:23:30;;;;;;;;;;;;;;;;;;5034683;28;20363;-42
2023/06/04 15:25:56;;;;;;;;;;;;;;;;;;5058780;28;19913;-42
2023/06/04 15:28:22;;;;;;;;;;;;;;;;;;5048607;28;19995;-42
2023/06/04 15:30:48;;;;;;;;;;;;;;;;;;5066796;28;19908;-42
2023/06/04 15:33:16;;;;;;;;;;;;;;;;;;5065027;28;19963;-43
2023/06/04 15:35:42;;;;;;;;;;;;;;;;;;5059650;28;19916;-44
2023/06/04 15:38:08;;;;;;;;;;;;;;;;;;5059175;28;19923;-43
2023/06/04 15:40:34;;;;;;;;;;;;;;;;;;5065998;28;19916;-42
2023/06/04 15:43:00;;;;;;;;;;;;;;;;;;5066162;28;19917;-42
2023/06/04 15:45:26;;;;;;;;;;;;;;;;;;5066489;28;20008;-41
2023/06/04 15:47:51;;;;;;;;;;;;;;;;;;5066265;28;20029;-42
2023/06/04 15:50:17;;;;;;;;;;;;;;;;;;5067536;28;19916;-43
2023/06/04 15:52:43;;;;;;;;;;;;;;;;;;5064827;28;19936;-43
2023/06/04 15:55:09;;;;;;;;;;;;;;;;;;5066281;28;19924;-43
2023/06/04 15:57:35;;;;;;;;;;;;;;;;;;5067084;28;19948;-43
2023/06/04 16:00:01;;;;;;;;;;;;;;;;;;5075550;28;19935;-43
2023/06/04 16:02:27;;;;;;;;;;;;;;;;;;5058326;28;19917;-43
2023/06/04 16:04:53;;;;;;;;;;;;;;;;;;5070869;28;19908;-44
2023/06/04 16:07:19;;;;;;;;;;;;;;;;;;5071693;28;19915;-44
2023/06/04 16:09:45;;;;;;;;;;;;;;;;;;5070844;28;20379;-43
2023/06/04 16:12:11;;;;;;;;;;;;;;;;;;5070947;28;19913;-43
2023/06/04 16:14:39;;;;;;;;;;;;;;;;;;5032678;28;20577;-43
2023/06/04 16:17:05;;;;;;;;;;;;;;;;;;5050727;28;19966;-44
2023/06/04 16:19:31;;;;;;;;;;;;;;;;;;5049955;28;19919;-44
2023/06/04 16:21:57;;;;;;;;;;;;;;;;;;5060444;28;20439;-43
2023/06/04 16:24:23;;;;;;;;;;;;;;;;;;5068930;28;19912;-43
2023/06/04 16:26:49;;;;;;;;;;;;;;;;;;5052252;28;19936;-44
2023/06/04 16:29:15;;;;;;;;;;;;;;;;;;5050158;28;19952;-43
2023/06/04 16:31:41;;;;;;;;;;;;;;;;;;5055954;28;19916;-42
2023/06/04 16:34:07;;;;;;;;;;;;;;;;;;5069456;28;19924;-43
2023/06/04 16:36:33;;;;;;;;;;;;;;;;;;5069563;28;19946;-43
2023/06/04 16:38:58;;;;;;;;;;;;;;;;;;5069831;28;19916;-45
2023/06/04 16:41:26;;;;;;;;;;;;;;;;;;5069422;28;19958;-44
2023/06/04 16:43:52;;;;;;;;;;;;;;;;;;5068471;28;19924;-43
2023/06/04 16:46:18;;;;;;;;;;;;;;;;;;5056209;28;19917;-42
2023/06/04 16:48:44;;;;;;;;;;;;;;;;;;5068669;28;19908;-45
2023/06/04 16:51:10;;;;;;;;;;;;;;;;;;5059792;28;20213;-43
2023/06/04 16:53:37;;;;;;;;;;;;;;;;;;5055144;28;19912;-44
2023/06/04 16:56:03;;;;;;;;;;;;;;;;;;5068521;28;19908;-44
2023/06/04 16:58:29;;;;;;;;;;;;;;;;;;5067276;28;19924;-44
2023/06/04 17:00:55;;;;;;;;;;;;;;;;;;5058473;28;19913;-43
2023/06/04 17:03:21;;;;;;;;;;;;;;;;;;5052725;28;19966;-45
2023/06/04 17:05:47;;;;;;;;;;;;;;;;;;5058476;28;19920;-42
2023/06/04 17:08:13;;;;;;;;;;;;;;;;;;5060467;28;19917;-43
2023/06/04 17:10:40;;;;;;;;;;;;;;;;;;5039655;28;20295;-44
2023/06/04 17:13:06;;;;;;;;;;;;;;;;;;5055180;28;20015;-44
2023/06/04 17:15:32;;;;;;;;;;;;;;;;;;5050558;28;19909;-43
2023/06/04 17:18:00;;;;;;;;;;;;;;;;;;5046507;28;20395;-42
2023/06/04 17:20:28;;;;;;;;;;;;;;;;;;5062760;28;20015;-43
2023/06/04 17:22:53;;;;;;;;;;;;;;;;;;5048899;28;19908;-42
2023/06/04 17:25:20;;;;;;;;;;;;;;;;;;5060552;28;19923;-42
2023/06/04 17:27:50;;;;;;;;;;;;;;;;;;5055430;28;19971;-43
2023/06/04 17:30:16;;;;;;;;;;;;;;;;;;5060353;28;19913;-45
2023/06/04 17:32:42;;;;;;;;;;;;;;;;;;5065499;28;19923;-42
2023/06/04 17:35:09;;;;;;;;;;;;;;;;;;5054828;28;19909;-42
2023/06/04 17:37:36;;;;;;;;;;;;;;;;;;5057847;28;20111;-43
2023/06/04 17:40:03;;;;;;;;;;;;;;;;;;5063838;28;19916;-43
2023/06/04 17:42:29;;;;;;;;;;;;;;;;;;5063891;28;20350;-43
2023/06/04 17:44:55;;;;;;;;;;;;;;;;;;5065612;28;19912;-44
2023/06/04 17:47:21;;;;;;;;;;;;;;;;;;5060846;28;19920;-45
2023/06/04 17:49:47;;;;;;;;;;;;;;;;;;5058928;28;20318;-44
2023/06/04 17:52:14;;;;;;;;;;;;;;;;;;5057675;28;19924;-43
2023/06/04 17:54:39;;;;;;;;;;;;;;;;;;5046352;28;19920;-43
2023/06/04 17:57:05;;;;;;;;;;;;;;;;;;5032070;28;19917;-44
2023/06/04 17:59:31;;;;;;;;;;;;;;;;;;5060148;28;19923;-44
2023/06/04 18:01:58;;;;;;;;;;;;;;;;;;5051732;28;19948;-44
2023/06/04 18:04:24;;;;;;;;;;;;;;;;;;5058246;28;19912;-43
2023/06/04 18:06:51;;;;;;;;;;;;;;;;;;5060085;28;19912;-45
2023/06/04 18:09:17;;;;;;;;;;;;;;;;;;5059503;28;19920;-44
2023/06/04 18:11:44;;;;;;;;;;;;;;;;;;5063068;28;19916;-44
2023/06/04 18:14:10;;;;;;;;;;;;;;;;;;5058354;28;19924;-45
2023/06/04 18:16:36;;;;;;;;;;;;;;;;;;5041322;28;19921;-45
2023/06/04 18:19:02;;;;;;;;;;;;;;;;;;5061091;28;19948;-44
2023/06/04 18:21:28;;;;;;;;;;;;;;;;;;5043571;28;19920;-43
2023/06/04 18:23:55;;;;;;;;;;;;;;;;;;5063840;28;20019;-43
2023/06/04 18:26:21;;;;;;;;;;;;;;;;;;5063213;28;19916;-43
2023/06/04 18:28:47;;;;;;;;;;;;;;;;;;5064894;28;19912;-43
2023/06/04 18:31:13;;;;;;;;;;;;;;;;;;5068263;28;20874;-44
2023/06/04 18:33:39;;;;;;;;;;;;;;;;;;5041639;28;19986;-43
2023/06/04 18:36:06;;;;;;;;;;;;;;;;;;5045657;28;19916;-44
2023/06/04 18:38:33;;;;;;;;;;;;;;;;;;5056926;28;19917;-44
2023/06/04 18:40:59;;;;;;;;;;;;;;;;;;5058805;28;20003;-45
2023/06/04 18:43:25;;;;;;;;;;;;;;;;;;5063015;28;20023;-43
2023/06/04 18:45:51;;;;;;;;;;;;;;;;;;5063164;28;19912;-43
2023/06/04 18:48:16;;;;;;;;;;;;;;;;;;5060323;28;19966;-44
2023/06/04 18:50:44;;;;;;;;;;;;;;;;;;5064485;28;20003;-43
2023/06/04 18:53:10;;;;;;;;;;;;;;;;;;5063247;28;20003;-45
2023/06/04 18:55:36;;;;;;;;;;;;;;;;;;5037583;28;20459;-44
2023/06/04 18:58:02;;;;;;;;;;;;;;;;;;5063548;28;19931;-44
2023/06/04 19:00:28;;;;;;;;;;;;;;;;;;5060632;28;19965;-44
2023/06/04 19:02:54;;;;;;;;;;;;;;;;;;5064761;28;19920;-43
2023/06/04 19:05:21;;;;;;;;;;;;;;;;;;5065075;28;19916;-44
2023/06/04 19:07:48;;;;;;;;;;;;;;;;;;5055235;28;20366;-44
2023/06/04 19:10:15;;;;;;;;;;;;;;;;;;5062542;28;19921;-45
2023/06/04 19:12:42;;;;;;;;;;;;;;;;;;5045851;28;19913;-45
2023/06/04 19:15:08;;;;;;;;;;;;;;;;;;5052118;28;19917;-43
2023/06/04 19:17:34;;;;;;;;;;;;;;;;;;5044651;28;19919;-44
2023/06/04 19:19:59;;;;;;;;;;;;;;;;;;5044201;28;19991;-43
2023/06/04 19:22:26;;;;;;;;;;;;;;;;;;5059857;28;20207;-44
2023/06/04 19:24:52;;;;;;;;;;;;;;;;;;5064278;28;19959;-45
2023/06/04 19:27:19;;;;;;;;;;;;;;;;;;5064947;28;19951;-43
2023/06/04 19:29:45;;;;;;;;;;;;;;;;;;5063413;28;20245;-43
2023/06/04 19:32:12;;;;;;;;;;;;;;;;;;5063803;28;19994;-44
2023/06/04 19:34:39;;;;;;;;;;;;;;;;;;5064682;28;19912;-44
2023/06/04 19:37:05;;;;;;;;;;;;;;;;;;5063302;28;19923;-44
2023/06/04 19:39:31;;;;;;;;;;;;;;;;;;5064263;28;19912;-44
2023/06/04 19:41:57;;;;;;;;;;;;;;;;;;5062329;28;19913;-42
2023/06/04 19:44:23;;;;;;;;;;;;;;;;;;5064040;28;20373;-44
2023/06/04 19:46:49;;;;;;;;;;;;;;;;;;5061648;28;20391;-43
2023/06/04 19:49:19;;;;;;;;;;;;;;;;;;5044605;28;20113;-45
2023/06/04 19:51:45;;;;;;;;;;;;;;;;;;5051154;28;20046;-43
2023/06/04 19:54:10;;;;;;;;;;;;;;;;;;5064218;28;19994;-44
2023/06/04 19:56:36;;;;;;;;;;;;;;;;;;5063105;28;20384;-44
2023/06/04 19:59:02;;;;;;;;;;;;;;;;;;5063367;28;19923;-44
2023/06/04 20:01:28;;;;;;;;;;;;;;;;;;5062063;28;20324;-43
2023/06/04 20:03:56;;;;;;;;;;;;;;;;;;5063257;28;19912;-44
2023/06/04 20:06:22;;;;;;;;;;;;;;;;;;5064126;28;19912;-44
2023/06/04 20:08:48;;;;;;;;;;;;;;;;;;5063455;28;20098;-45
2023/06/04 20:11:14;;;;;;;;;;;;;;;;;;5063734;28;20418;-44
2023/06/04 20:13:43;;;;;;;;;;;;;;;;;;5061583;28;19913;-44
2023/06/04 20:16:10;;;;;;;;;;;;;;;;;;5040297;28;19925;-44
2023/06/04 20:18:36;;;;;;;;;;;;;;;;;;5049523;28;20163;-44
2023/06/04 20:21:03;;;;;;;;;;;;;;;;;;5035481;28;19912;-45
2023/06/04 20:23:29;;;;;;;;;;;;;;;;;;5051899;28;19923;-44
2023/06/04 20:25:58;;;;;;;;;;;;;;;;;;5062811;28;19999;-44
2023/06/04 20:28:24;;;;;;;;;;;;;;;;;;5054674;28;19923;-43
2023/06/04 20:30:50;;;;;;;;;;;;;;;;;;5057084;28;19912;-44
2023/06/04 20:33:17;;;;;;;;;;;;;;;;;;5064313;28;19913;-45
2023/06/04 20:35:43;;;;;;;;;;;;;;;;;;5062993;28;20368;-44
2023/06/04 20:38:09;;;;;;;;;;;;;;;;;;5034091;28;19921;-45
2023/06/04 20:40:35;;;;;;;;;;;;;;;;;;5050487;28;19920;-46
2023/06/04 20:43:01;;;;;;;;;;;;;;;;;;5060469;28;19959;-45
2023/06/04 20:45:27;;;;;;;;;;;;;;;;;;5063824;28;20407;-43
2023/06/04 20:47:54;;;;;;;;;;;;;;;;;;5043699;28;19918;-45
2023/06/04 20:50:21;;;;;;;;;;;;;;;;;;5066398;28;19920;-47
2023/06/04 20:52:47;;;;;;;;;;;;;;;;;;5067168;28;20311;-45
2023/06/04 20:55:13;;;;;;;;;;;;;;;;;;5067597;28;19908;-44
2023/06/04 20:57:39;;;;;;;;;;;;;;;;;;5066781;28;19917;-44
2023/06/04 21:00:07;;;;;;;;;;;;;;;;;;5056072;28;19921;-45
2023/06/04 21:02:33;;;;;;;;;;;;;;;;;;5064077;28;19920;-45
2023/06/04 21:05:00;;;;;;;;;;;;;;;;;;5058664;28;20186;-46
2023/06/04 21:07:26;;;;;;;;;;;;;;;;;;5063665;28;19923;-45
2023/06/04 21:09:52;;;;;;;;;;;;;;;;;;5050188;28;20354;-44
2023/06/04 21:12:17;;;;;;;;;;;;;;;;;;5053561;28;19913;-45
2023/06/04 21:14:43;;;;;;;;;;;;;;;;;;5046111;28;19917;-45
2023/06/04 21:17:09;;;;;;;;;;;;;;;;;;5047399;28;19924;-44
2023/06/04 21:19:36;;;;;;;;;;;;;;;;;;5034991;28;19916;-43
2023/06/04 21:22:02;;;;;;;;;;;;;;;;;;5066496;28;19920;-44
2023/06/04 21:24:28;;;;;;;;;;;;;;;;;;5067300;28;19908;-45
2023/06/04 21:26:54;;;;;;;;;;;;;;;;;;5066425;28;20058;-43
2023/06/04 21:29:20;;;;;;;;;;;;;;;;;;5066890;28;19909;-43
2023/06/04 21:31:46;;;;;;;;;;;;;;;;;;5051465;28;20417;-44
2023/06/04 21:34:12;;;;;;;;;;;;;;;;;;5066803;28;19915;-44
2023/06/04 21:36:37;;;;;;;;;;;;;;;;;;5052285;28;19916;-44
2023/06/04 21:39:04;;;;;;;;;;;;;;;;;;5046002;28;20233;-43
2023/06/04 21:41:30;;;;;;;;;;;;;;;;;;5046441;28;20390;-44